Averill, Vermont
Current Conditions -  °F | °C
As of 11:55 AM on Thursday 27 Nov 2014 (Local Time) from KEFK Reporting Station
Overcast Overcast  
Wind Chill: -7°   Ceiling: 2000
Heat Index: -4°   Visibility: 10mi
Dew Point: -6°   Wind: 5mph
Humidity: 82%   Direction: 290°WNW
Pressure: 29.98"   Gusts: NA
Location:  45°N, 71.71°W
Report Text: KEFK 271655Z AUTO 29004KT 10SM OVC020 M04/M06 A2998 RMK AO2 T10371064
Loading
Personal Weather Stations






























Interactive Weather Map New forecast layout! Learn more

10-Day Weather Forecast

Advertisements
Track Severe Weather on mobile